aviador You're here:

KMLS Decoded Metar

MILES CITY in MT, USA
Report Time2018-07-21 07:53:00
UTC Time2018-07-21 08:13:02
Flight Rules vfr VFR
Wind140° at 09 kt
W.Decomp.*RWY 12: 8.9 kt HW 1.3 kt RCW
RWY 04: 0.3 kt HW 9.0 kt RCW
W.Rank140° ranks 8
Current wind is above 140° avg. (8.4)
Visibility9999 m
Phenomena:N/A
Clouds:N/A
Expected CloudBase > 3,600 ft AGL from Temp-Dew spread
CeilingNone
Temp23°C (ISA +13)
Dew Point14°C (57% RH)
AAT21.0°C
QNH1015 hPa
Density Alt4,311 ft
Elevation2,628 ft
Report Wrong Elevation
Raw Report
KMLS 210753Z AUTO 14009KT 10SM CLR 23/14 A2996 RMK AO2 SLP121
T02280144=

Extra information for KMLS:More info

Metar Taf Metar & Taf Last 4 Metars F.Rules Stats Wind Profile Meteogram Temp Stats Airport Information Weather charts Add Link Nearby VenuesMetar ALERT Operation Metar Decoded Social comments

AIRNAV info for KMLS